createdAt,value
2023-04-15T00:00:57.713Z,99.90
2023-04-15T00:03:25.046Z,99.90
2023-04-15T00:05:52.271Z,99.90
2023-04-15T00:08:20.520Z,99.90
2023-04-15T00:10:48.033Z,99.90
2023-04-15T00:13:15.515Z,99.90
2023-04-15T00:15:43.391Z,99.90
2023-04-15T00:18:10.590Z,99.90
2023-04-15T00:20:37.825Z,99.90
2023-04-15T00:23:05.674Z,99.90
2023-04-15T00:25:33.211Z,99.90
2023-04-15T00:28:00.165Z,99.90
2023-04-15T00:30:27.298Z,99.90
2023-04-15T00:32:54.468Z,99.90
2023-04-15T00:35:24.129Z,99.90
2023-04-15T00:37:51.589Z,99.90
2023-04-15T00:40:21.099Z,99.90
2023-04-15T00:42:48.463Z,99.90
2023-04-15T00:45:15.915Z,99.90
2023-04-15T00:47:44.703Z,99.90
2023-04-15T00:50:12.916Z,99.90
2023-04-15T00:52:41.660Z,99.90
2023-04-15T00:59:36.605Z,99.90
2023-04-15T01:02:03.721Z,99.90
2023-04-15T01:04:31.490Z,99.90
2023-04-15T01:06:59.060Z,99.90
2023-04-15T01:13:57.694Z,99.90
2023-04-15T01:16:24.958Z,99.90
2023-04-15T01:18:52.837Z,99.90
2023-04-15T01:21:20.200Z,99.90
2023-04-15T01:28:24.229Z,99.90
2023-04-15T01:31:05.734Z,99.90
2023-04-15T01:33:33.125Z,99.90
2023-04-15T01:36:00.350Z,99.90
2023-04-15T01:38:28.233Z,99.90
2023-04-15T01:40:55.390Z,99.90
2023-04-15T01:43:24.781Z,99.90
2023-04-15T01:45:51.881Z,99.90
2023-04-15T01:48:19.173Z,99.90
2023-04-15T01:50:46.562Z,99.90
2023-04-15T01:53:15.579Z,99.90
2023-04-15T01:55:42.642Z,99.90
2023-04-15T01:58:09.964Z,99.90
2023-04-15T02:00:37.002Z,99.90
2023-04-15T02:03:04.320Z,99.90
2023-04-15T02:05:31.508Z,99.90
2023-04-15T02:07:58.513Z,99.90
2023-04-15T02:14:57.437Z,99.90
2023-04-15T02:17:24.633Z,99.90
2023-04-15T02:19:51.698Z,99.90
2023-04-15T02:22:19.016Z,99.90
2023-04-15T02:29:13.032Z,99.90
2023-04-15T02:31:42.307Z,99.90
2023-04-15T02:34:09.434Z,99.90
2023-04-15T02:36:36.568Z,99.90
2023-04-15T02:39:05.660Z,99.90
2023-04-15T02:41:32.798Z,99.90
2023-04-15T02:43:59.796Z,99.90
2023-04-15T02:46:29.449Z,99.90
2023-04-15T02:48:56.787Z,99.90
2023-04-15T02:51:26.213Z,99.90
2023-04-15T02:53:53.248Z,99.90
2023-04-15T02:56:20.247Z,99.90
2023-04-15T02:58:50.650Z,99.90
2023-04-15T03:02:14.052Z,99.90
2023-04-15T03:05:03.347Z,99.90
2023-04-15T03:07:31.611Z,99.90
2023-04-15T03:09:59.629Z,99.90
2023-04-15T03:12:26.695Z,99.90
2023-04-15T03:14:56.785Z,99.90
2023-04-15T03:17:31.752Z,99.90
2023-04-15T03:19:59.650Z,99.90
2023-04-15T03:22:27.403Z,99.90
2023-04-15T03:24:55.463Z,99.90
2023-04-15T03:27:22.521Z,99.90
2023-04-15T03:29:49.573Z,99.90
2023-04-15T03:32:18.336Z,99.90
2023-04-15T03:34:45.467Z,99.90
2023-04-15T03:37:12.541Z,99.90
2023-04-15T03:39:39.541Z,99.90
2023-04-15T03:42:06.747Z,99.90
2023-04-15T03:44:33.717Z,99.90
2023-04-15T03:47:00.792Z,99.90
2023-04-15T03:49:27.854Z,99.90
2023-04-15T03:51:54.797Z,99.90
2023-04-15T03:54:21.809Z,99.90
2023-04-15T03:56:49.116Z,99.90
2023-04-15T03:59:16.633Z,99.90
2023-04-15T04:01:43.744Z,99.90
2023-04-15T04:04:11.179Z,99.90
2023-04-15T04:06:38.195Z,99.90
2023-04-15T04:09:05.287Z,99.90
2023-04-15T04:15:58.273Z,99.90
2023-04-15T04:18:25.467Z,99.90
2023-04-15T04:20:52.437Z,99.90
2023-04-15T04:23:19.478Z,99.90
2023-04-15T04:25:46.716Z,99.90
2023-04-15T04:28:13.601Z,99.90
2023-04-15T04:30:40.809Z,99.90
2023-04-15T04:33:08.007Z,99.90
2023-04-15T04:35:37.691Z,99.90
2023-04-15T04:38:04.838Z,99.90
2023-04-15T04:40:32.034Z,99.90
2023-04-15T04:42:59.254Z,99.90
2023-04-15T04:45:26.280Z,99.90
2023-04-15T04:47:53.255Z,99.90
2023-04-15T04:50:21.367Z,99.90
2023-04-15T04:52:49.044Z,99.90
2023-04-15T04:55:16.108Z,99.90
2023-04-15T04:57:43.052Z,99.90
2023-04-15T05:00:10.568Z,99.90
2023-04-15T05:02:37.718Z,99.90
2023-04-15T05:05:05.240Z,99.90
2023-04-15T05:07:32.339Z,99.90
2023-04-15T05:09:59.433Z,99.90
2023-04-15T05:12:26.699Z,99.90
2023-04-15T05:14:53.714Z,99.90
2023-04-15T05:17:20.785Z,99.90
2023-04-15T05:19:47.802Z,99.90
2023-04-15T05:22:14.813Z,99.90
2023-04-15T05:24:41.912Z,99.90
2023-04-15T05:31:37.613Z,99.90
2023-04-15T05:34:05.381Z,99.90
2023-04-15T05:36:32.503Z,99.90
2023-04-15T05:38:59.769Z,99.90
2023-04-15T05:45:55.825Z,99.90
2023-04-15T05:48:22.812Z,99.90
2023-04-15T05:50:49.903Z,99.90
2023-04-15T05:53:17.109Z,99.90
2023-04-15T06:00:11.940Z,99.90
2023-04-15T06:02:39.395Z,99.90
2023-04-15T06:05:09.923Z,99.90
2023-04-15T06:07:37.679Z,99.90
2023-04-15T06:10:05.987Z,99.90
2023-04-15T06:12:33.077Z,99.90
2023-04-15T06:15:00.434Z,99.90
2023-04-15T06:17:28.012Z,99.90
2023-04-15T06:19:55.884Z,99.90
2023-04-15T06:22:23.584Z,99.90
2023-04-15T06:24:51.534Z,99.90
2023-04-15T06:27:18.954Z,99.90
2023-04-15T06:29:46.419Z,99.90
2023-04-15T06:32:13.591Z,99.90
2023-04-15T06:34:40.794Z,99.90
2023-04-15T06:37:07.993Z,99.90
2023-04-15T06:39:35.002Z,99.90
2023-04-15T06:42:03.484Z,99.90
2023-04-15T06:44:32.633Z,99.90
2023-04-15T06:47:01.261Z,99.90
2023-04-15T06:49:28.197Z,99.90
2023-04-15T06:51:55.727Z,99.90
2023-04-15T06:54:22.750Z,99.90
2023-04-15T06:56:50.082Z,99.90
2023-04-15T06:59:16.969Z,99.90
2023-04-15T07:01:44.487Z,99.90
2023-04-15T07:04:12.626Z,99.90
2023-04-15T07:06:39.789Z,99.90
2023-04-15T07:09:06.693Z,99.90
2023-04-15T07:11:33.938Z,99.90
2023-04-15T07:14:00.950Z,99.90
2023-04-15T07:16:29.854Z,99.90
2023-04-15T07:18:57.505Z,99.90
2023-04-15T07:21:25.836Z,99.90
2023-04-15T07:23:52.820Z,99.90
2023-04-15T07:26:19.760Z,99.90
2023-04-15T07:28:47.559Z,99.90
2023-04-15T07:31:15.115Z,99.90
2023-04-15T07:33:42.466Z,99.90
2023-04-15T07:36:10.617Z,99.90
2023-04-15T07:38:37.789Z,99.90
2023-04-15T07:41:05.023Z,99.90
2023-04-15T07:43:32.088Z,99.90
2023-04-15T07:45:59.172Z,99.90
2023-04-15T07:48:26.625Z,99.90
2023-04-15T07:50:53.971Z,99.90
2023-04-15T07:53:21.279Z,99.90
2023-04-15T07:55:48.252Z,99.90
2023-04-15T08:02:44.184Z,99.90
2023-04-15T08:05:11.589Z,99.90
2023-04-15T08:07:39.954Z,99.90
2023-04-15T08:10:07.557Z,99.90
2023-04-15T08:17:02.544Z,99.90
2023-04-15T08:19:30.172Z,99.90
2023-04-15T08:21:57.739Z,99.90
2023-04-15T08:24:26.395Z,99.90
2023-04-15T08:31:30.829Z,99.90
2023-04-15T08:33:58.164Z,99.90
2023-04-15T08:36:25.629Z,99.90
2023-04-15T08:38:52.729Z,99.90
2023-04-15T08:41:25.369Z,99.90
2023-04-15T08:48:29.958Z,99.90
2023-04-15T08:50:57.503Z,99.90
2023-04-15T08:53:25.505Z,99.90
2023-04-15T08:55:55.183Z,99.90
2023-04-15T08:58:22.545Z,99.90
2023-04-15T09:00:49.615Z,99.90
2023-04-15T09:03:17.799Z,99.90
2023-04-15T09:05:45.032Z,92.40
2023-04-15T09:08:12.169Z,97.30
2023-04-15T09:10:39.136Z,94.80
2023-04-15T09:13:06.191Z,86.50
2023-04-15T09:15:33.831Z,80.00
2023-04-15T09:18:00.881Z,75.60
2023-04-15T09:20:28.075Z,76.90
2023-04-15T09:22:55.204Z,69.40
2023-04-15T09:25:26.672Z,72.50
2023-04-15T09:27:56.610Z,71.90
2023-04-15T09:30:24.189Z,74.80
2023-04-15T09:32:56.652Z,79.70
2023-04-15T09:35:25.764Z,91.90
2023-04-15T09:37:53.368Z,96.50
2023-04-15T09:40:37.290Z,99.90
2023-04-15T09:43:05.681Z,99.60
2023-04-15T09:45:34.069Z,99.40
2023-04-15T09:48:18.650Z,98.70
2023-04-15T09:50:45.741Z,95.30
2023-04-15T09:53:17.967Z,97.00
2023-04-15T09:56:03.663Z,99.90
2023-04-15T09:58:35.552Z,94.90
2023-04-15T10:01:05.228Z,93.60
2023-04-15T10:03:37.022Z,87.30
2023-04-15T10:06:05.829Z,84.50
2023-04-15T10:08:34.991Z,85.70
2023-04-15T10:11:03.258Z,87.80
2023-04-15T10:13:33.758Z,93.10
2023-04-15T10:16:07.176Z,85.50
2023-04-15T10:18:38.039Z,92.10
2023-04-15T10:21:06.204Z,83.80
2023-04-15T10:23:33.962Z,77.30
2023-04-15T10:26:01.691Z,75.40
2023-04-15T10:28:29.069Z,73.60
2023-04-15T10:30:57.457Z,70.60
2023-04-15T10:33:25.810Z,73.30
2023-04-15T10:35:55.758Z,80.00
2023-04-15T10:38:43.478Z,76.70
2023-04-15T10:41:24.711Z,79.90
2023-04-15T10:43:57.850Z,83.80
2023-04-15T10:46:38.743Z,83.60
2023-04-15T10:49:17.335Z,88.90
2023-04-15T10:51:52.095Z,75.20
2023-04-15T10:54:24.857Z,79.20
2023-04-15T10:57:06.887Z,81.20
2023-04-15T10:59:38.031Z,84.70
2023-04-15T11:02:07.543Z,90.10
2023-04-15T11:04:53.626Z,90.70
2023-04-15T11:07:58.651Z,93.40
2023-04-15T11:10:25.974Z,93.30
2023-04-15T11:17:31.765Z,95.80
2023-04-15T11:19:59.059Z,99.00
2023-04-15T11:22:26.138Z,95.40
2023-04-15T11:24:53.114Z,93.30
2023-04-15T11:27:23.857Z,98.40
2023-04-15T11:29:50.896Z,96.20
2023-04-15T11:32:18.129Z,99.90
2023-04-15T11:34:47.075Z,99.90
2023-04-15T11:37:14.480Z,99.90
2023-04-15T11:39:42.835Z,99.90
2023-04-15T11:42:19.022Z,99.90
2023-04-15T11:44:46.110Z,99.80
2023-04-15T11:47:25.698Z,99.50
2023-04-15T11:49:52.796Z,97.70
2023-04-15T11:52:19.996Z,93.40
2023-04-15T11:54:46.949Z,93.10
2023-04-15T11:57:14.292Z,99.90
2023-04-15T11:59:46.015Z,98.10
2023-04-15T12:02:14.295Z,99.90
2023-04-15T12:04:41.775Z,95.10
2023-04-15T12:07:08.975Z,96.50
2023-04-15T12:09:39.979Z,99.90
2023-04-15T12:12:07.338Z,99.90
2023-04-15T12:14:34.488Z,99.90
2023-04-15T12:17:07.567Z,99.90
2023-04-15T12:19:43.119Z,99.70
2023-04-15T12:22:11.881Z,99.90
2023-04-15T12:24:39.512Z,99.90
2023-04-15T12:27:11.974Z,99.90
2023-04-15T12:29:41.100Z,99.90
2023-04-15T12:32:11.932Z,99.40
2023-04-15T12:34:41.559Z,99.90
2023-04-15T12:37:10.613Z,98.70
2023-04-15T12:39:40.024Z,99.90
2023-04-15T12:42:08.415Z,99.90
2023-04-15T12:44:36.824Z,99.00
2023-04-15T12:47:03.971Z,97.50
2023-04-15T12:49:32.869Z,99.90
2023-04-15T12:52:01.616Z,97.60
2023-04-15T12:54:32.510Z,98.20
2023-04-15T12:57:00.995Z,99.90
2023-04-15T12:59:29.209Z,99.90
2023-04-15T13:01:56.298Z,99.90
2023-04-15T13:04:23.652Z,99.90
2023-04-15T13:06:51.419Z,99.90
2023-04-15T13:09:18.433Z,99.90
2023-04-15T13:11:45.626Z,99.90
2023-04-15T13:14:13.168Z,99.90
2023-04-15T13:16:41.048Z,99.90
2023-04-15T13:19:08.139Z,99.90
2023-04-15T13:21:35.719Z,99.90
2023-04-15T13:24:04.255Z,99.90
2023-04-15T13:26:31.873Z,99.90
2023-04-15T13:29:00.905Z,99.90
2023-04-15T13:31:28.186Z,99.90
2023-04-15T13:33:55.412Z,99.90
2023-04-15T13:36:22.417Z,99.90
2023-04-15T13:38:51.469Z,99.90
2023-04-15T13:41:18.962Z,99.90
2023-04-15T13:43:46.380Z,99.90
2023-04-15T13:50:41.628Z,99.90
2023-04-15T13:53:08.990Z,99.90
2023-04-15T13:55:36.032Z,99.90
2023-04-15T13:58:02.939Z,99.90
2023-04-15T14:00:29.970Z,99.90
2023-04-15T14:02:57.135Z,99.90
2023-04-15T14:05:24.267Z,99.90
2023-04-15T14:07:51.341Z,99.90
2023-04-15T14:10:18.427Z,99.90
2023-04-15T14:12:45.381Z,99.90
2023-04-15T14:15:12.409Z,93.70
2023-04-15T14:17:39.812Z,94.80
2023-04-15T14:20:10.120Z,94.30
2023-04-15T14:22:37.312Z,96.30
2023-04-15T14:25:05.129Z,99.90
2023-04-15T14:27:32.093Z,99.90
2023-04-15T14:29:59.249Z,99.90
2023-04-15T14:32:27.191Z,99.90
2023-04-15T14:34:54.135Z,99.90
2023-04-15T14:37:21.370Z,99.90
2023-04-15T14:39:48.342Z,99.90
2023-04-15T14:42:15.547Z,99.90
2023-04-15T14:44:44.777Z,99.90
2023-04-15T14:47:11.953Z,99.90
2023-04-15T14:49:39.130Z,99.90
2023-04-15T14:52:06.077Z,99.90
2023-04-15T14:54:33.125Z,99.90
2023-04-15T14:57:01.825Z,99.90
2023-04-15T14:59:28.920Z,99.90
2023-04-15T15:06:22.734Z,99.90
2023-04-15T15:08:49.911Z,99.90
2023-04-15T15:11:17.398Z,99.90
2023-04-15T15:13:44.541Z,99.90
2023-04-15T15:16:13.837Z,99.90
2023-04-15T15:18:41.759Z,99.90
2023-04-15T15:21:08.856Z,99.90
2023-04-15T15:23:35.904Z,99.90
2023-04-15T15:26:03.021Z,99.90
2023-04-15T15:28:30.006Z,99.90
2023-04-15T15:30:57.109Z,99.90
2023-04-15T15:33:24.167Z,99.90
2023-04-15T15:35:51.704Z,99.90
2023-04-15T15:38:18.890Z,99.90
2023-04-15T15:40:45.972Z,99.90
2023-04-15T15:43:12.888Z,99.90
2023-04-15T15:45:41.070Z,99.90
2023-04-15T15:48:07.990Z,99.90
2023-04-15T15:50:35.138Z,99.90
2023-04-15T15:53:02.116Z,99.90
2023-04-15T15:55:29.279Z,99.90
2023-04-15T15:57:56.333Z,99.90
2023-04-15T16:00:23.322Z,99.90
2023-04-15T16:03:05.748Z,99.90
2023-04-15T16:05:34.230Z,99.90
2023-04-15T16:08:01.897Z,99.90
2023-04-15T16:10:29.019Z,99.90
2023-04-15T16:12:56.046Z,99.90
2023-04-15T16:15:25.082Z,99.90
2023-04-15T16:17:52.289Z,99.90
2023-04-15T16:20:19.490Z,99.90
2023-04-15T16:22:46.589Z,99.90
2023-04-15T16:25:13.657Z,99.90
2023-04-15T16:27:57.201Z,99.90
2023-04-15T16:30:26.341Z,99.90
2023-04-15T16:32:53.409Z,99.90
2023-04-15T16:35:20.614Z,99.90
2023-04-15T16:37:47.740Z,99.90
2023-04-15T16:40:15.580Z,99.90
2023-04-15T16:42:43.823Z,99.90
2023-04-15T16:45:10.961Z,99.90
2023-04-15T16:52:05.241Z,99.90
2023-04-15T16:54:34.624Z,99.90
2023-04-15T16:57:02.702Z,99.90
2023-04-15T16:59:29.839Z,99.90
2023-04-15T17:06:25.037Z,99.90
2023-04-15T17:08:52.077Z,99.90
2023-04-15T17:11:19.566Z,99.90
2023-04-15T17:13:47.062Z,99.90
2023-04-15T17:20:46.130Z,99.90
2023-04-15T17:23:13.151Z,99.90
2023-04-15T17:25:40.089Z,99.90
2023-04-15T17:28:07.135Z,99.90
2023-04-15T17:30:34.186Z,99.90
2023-04-15T17:33:01.714Z,99.90
2023-04-15T17:35:28.841Z,99.90
2023-04-15T17:37:56.031Z,99.90
2023-04-15T17:40:23.076Z,99.90
2023-04-15T17:42:50.040Z,99.90
2023-04-15T17:45:17.128Z,99.90
2023-04-15T17:47:44.469Z,99.90
2023-04-15T17:50:11.482Z,99.90
2023-04-15T17:52:38.759Z,99.90
2023-04-15T17:55:07.042Z,99.90
2023-04-15T17:57:34.103Z,99.90
2023-04-15T18:00:01.186Z,99.90
2023-04-15T18:02:28.305Z,99.90
2023-04-15T18:04:55.755Z,99.90
2023-04-15T18:07:23.069Z,99.90
2023-04-15T18:09:50.855Z,99.90
2023-04-15T18:12:17.925Z,99.90
2023-04-15T18:14:45.142Z,99.90
2023-04-15T18:17:14.545Z,99.90
2023-04-15T18:19:41.672Z,99.90
2023-04-15T18:22:08.724Z,99.90
2023-04-15T18:24:35.764Z,99.90
2023-04-15T18:27:02.758Z,99.90
2023-04-15T18:29:31.374Z,99.90
2023-04-15T18:32:03.042Z,99.90
2023-04-15T18:34:30.517Z,99.90
2023-04-15T18:36:58.313Z,99.90
2023-04-15T18:39:26.793Z,99.90
2023-04-15T18:41:54.362Z,99.90
2023-04-15T18:44:21.891Z,99.90
2023-04-15T18:46:49.860Z,99.90
2023-04-15T18:49:17.016Z,99.90
2023-04-15T18:51:44.274Z,99.90
2023-04-15T18:54:11.268Z,99.90
2023-04-15T18:56:39.476Z,99.90
2023-04-15T18:59:27.779Z,99.90
2023-04-15T19:01:54.157Z,99.90
2023-04-15T19:04:21.279Z,99.90
2023-04-15T19:06:48.860Z,99.90
2023-04-15T19:09:16.497Z,99.90
2023-04-15T19:11:44.085Z,99.90
2023-04-15T19:14:11.422Z,99.90
2023-04-15T19:16:38.585Z,99.90
2023-04-15T19:23:36.212Z,99.90
2023-04-15T19:26:03.170Z,99.90
2023-04-15T19:28:30.509Z,99.90
2023-04-15T19:30:58.277Z,99.90
2023-04-15T19:37:52.394Z,99.90
2023-04-15T19:40:19.500Z,99.90
2023-04-15T19:42:46.823Z,99.90
2023-04-15T19:45:13.918Z,99.90
2023-04-15T19:52:11.015Z,99.90
2023-04-15T19:54:38.374Z,99.90
2023-04-15T19:57:05.539Z,99.90
2023-04-15T19:59:32.469Z,99.90
2023-04-15T20:01:59.503Z,99.90
2023-04-15T20:04:27.419Z,99.90
2023-04-15T20:06:54.944Z,99.90
2023-04-15T20:09:22.138Z,99.90
2023-04-15T20:12:05.951Z,99.90
2023-04-15T20:14:36.571Z,99.90
2023-04-15T20:17:03.722Z,99.90
2023-04-15T20:19:31.033Z,99.90
2023-04-15T20:21:58.125Z,99.90
2023-04-15T20:24:25.294Z,99.90
2023-04-15T20:26:52.328Z,99.90
2023-04-15T20:29:19.389Z,99.90
2023-04-15T20:31:46.491Z,99.90
2023-04-15T20:34:13.703Z,99.90
2023-04-15T20:36:40.749Z,99.90
2023-04-15T20:39:07.924Z,99.90
2023-04-15T20:41:35.128Z,99.90
2023-04-15T20:44:02.444Z,99.90
2023-04-15T20:46:29.484Z,99.90
2023-04-15T20:48:56.566Z,99.90
2023-04-15T20:51:23.674Z,99.90
2023-04-15T20:53:50.863Z,99.90
2023-04-15T20:56:24.302Z,99.90
2023-04-15T20:58:52.602Z,99.90
2023-04-15T21:01:22.562Z,99.90
2023-04-15T21:03:56.736Z,99.90
2023-04-15T21:06:24.452Z,99.90
2023-04-15T21:08:52.576Z,99.90
2023-04-15T21:11:40.637Z,99.90
2023-04-15T21:14:09.447Z,99.90
2023-04-15T21:16:37.341Z,99.90
2023-04-15T21:19:07.039Z,99.90
2023-04-15T21:21:39.077Z,99.90
2023-04-15T21:24:10.960Z,99.90
2023-04-15T21:26:42.489Z,99.90
2023-04-15T21:29:14.239Z,99.90
2023-04-15T21:31:42.795Z,99.90
2023-04-15T21:34:10.296Z,99.90
2023-04-15T21:36:41.764Z,99.90
2023-04-15T21:39:13.914Z,99.90
2023-04-15T21:41:42.168Z,99.90
2023-04-15T21:44:09.423Z,99.90
2023-04-15T21:46:40.007Z,99.90
2023-04-15T21:49:17.182Z,99.90
2023-04-15T21:51:47.647Z,99.90
2023-04-15T21:54:18.023Z,99.90
2023-04-15T21:56:52.659Z,99.90
2023-04-15T21:59:24.582Z,99.90
2023-04-15T22:01:54.069Z,99.90
2023-04-15T22:04:22.121Z,99.90
2023-04-15T22:06:49.261Z,99.90
2023-04-15T22:09:16.992Z,99.90
2023-04-15T22:11:44.384Z,99.90
2023-04-15T22:14:11.760Z,99.90
2023-04-15T22:16:38.953Z,99.90
2023-04-15T22:19:08.803Z,99.90
2023-04-15T22:21:36.733Z,99.90
2023-04-15T22:24:32.461Z,99.90
2023-04-15T22:26:52.037Z,99.90
2023-04-15T22:29:19.301Z,99.90
2023-04-15T22:31:46.603Z,99.90
2023-04-15T22:34:20.700Z,99.90
2023-04-15T22:36:52.085Z,99.90
2023-04-15T22:39:23.158Z,99.90
2023-04-15T22:41:50.667Z,99.90
2023-04-15T22:44:18.775Z,99.90
2023-04-15T22:46:49.823Z,99.90
2023-04-15T22:49:18.178Z,99.90
2023-04-15T22:51:45.611Z,99.90
2023-04-15T22:54:15.979Z,99.90
2023-04-15T22:56:48.258Z,99.90
2023-04-15T22:59:20.599Z,99.90
2023-04-15T23:01:49.234Z,99.90
2023-04-15T23:04:23.401Z,99.90
2023-04-15T23:06:53.910Z,99.90
2023-04-15T23:09:21.515Z,99.90
2023-04-15T23:11:52.613Z,99.90
2023-04-15T23:14:25.726Z,99.90
2023-04-15T23:16:54.890Z,99.90
2023-04-15T23:19:21.902Z,99.90
2023-04-15T23:21:49.242Z,99.90
2023-04-15T23:24:16.813Z,99.90
2023-04-15T23:26:43.995Z,99.90
2023-04-15T23:29:11.158Z,99.90
2023-04-15T23:31:38.375Z,99.90
2023-04-15T23:34:06.526Z,99.90
2023-04-15T23:41:00.576Z,99.90
2023-04-15T23:43:27.506Z,99.90
2023-04-15T23:45:54.765Z,99.90
2023-04-15T23:48:23.900Z,99.90
2023-04-15T23:55:27.353Z,99.90
2023-04-15T23:57:54.337Z,99.90
